createdAt,value
2023-04-01T00:01:21.035Z,98708.44
2023-04-01T00:03:49.317Z,98705.47
2023-04-01T00:06:19.113Z,98711.97
2023-04-01T00:08:47.314Z,98709.81
2023-04-01T00:11:17.975Z,98715.75
2023-04-01T00:13:48.641Z,98721.69
2023-04-01T00:16:22.348Z,98713.56
2023-04-01T00:18:51.785Z,98703.56
2023-04-01T00:21:22.990Z,98701.41
2023-04-01T00:23:53.598Z,98710.06
2023-04-01T00:26:23.874Z,98706.53
2023-04-01T00:28:51.974Z,98707.34
2023-04-01T00:31:19.875Z,98708.97
2023-04-01T00:33:47.544Z,98711.13
2023-04-01T00:36:17.910Z,98697.34
2023-04-01T00:38:46.879Z,98700.59
2023-04-01T00:41:16.600Z,98698.41
2023-04-01T00:43:52.849Z,98705.44
2023-04-01T00:46:21.245Z,98695.72
2023-04-01T00:48:57.618Z,98685.97
2023-04-01T00:51:31.827Z,98688.69
2023-04-01T00:54:02.827Z,98696.00
2023-04-01T00:56:36.549Z,98691.38
2023-04-01T00:59:11.874Z,98685.44
2023-04-01T01:01:39.743Z,98682.47
2023-04-01T01:04:08.198Z,98681.38
2023-04-01T01:07:13.480Z,98691.13
2023-04-01T01:10:02.596Z,98693.00
2023-04-01T01:12:55.922Z,98687.59
2023-04-01T01:15:44.538Z,98691.66
2023-04-01T01:18:17.852Z,98696.00
2023-04-01T01:21:23.541Z,98694.94
2023-04-01T01:24:12.467Z,98676.25
2023-04-01T01:26:56.183Z,98676.78
2023-04-01T01:29:23.743Z,98681.66
2023-04-01T01:32:09.824Z,98675.16
2023-04-01T01:34:46.504Z,98674.06
2023-04-01T01:37:18.369Z,98675.97
2023-04-01T01:40:03.400Z,98678.38
2023-04-01T01:42:33.676Z,98681.09
2023-04-01T01:45:03.748Z,98682.19
2023-04-01T01:47:31.759Z,98681.38
2023-04-01T01:49:59.873Z,98673.53
2023-04-01T01:52:30.372Z,98675.97
2023-04-01T01:54:59.392Z,98677.03
2023-04-01T01:57:38.528Z,98673.53
2023-04-01T02:00:14.889Z,98680.00
2023-04-01T02:02:49.617Z,98679.47
2023-04-01T02:05:21.893Z,98675.66
2023-04-01T02:07:56.478Z,98674.59
2023-04-01T02:10:27.154Z,98673.50
2023-04-01T02:12:59.915Z,98672.16
2023-04-01T02:15:31.868Z,98672.16
2023-04-01T02:17:59.870Z,98671.38
2023-04-01T02:20:31.719Z,98671.62
2023-04-01T02:23:01.009Z,98667.56
2023-04-01T02:25:32.936Z,98658.63
2023-04-01T02:28:05.947Z,98652.16
2023-04-01T02:30:36.321Z,98655.66
2023-04-01T02:33:07.992Z,98658.09
2023-04-01T02:35:38.345Z,98654.84
2023-04-01T02:38:07.147Z,98657.56
2023-04-01T02:40:51.882Z,98654.84
2023-04-01T02:43:20.749Z,98651.59
2023-04-01T02:45:48.376Z,98649.69
2023-04-01T02:48:16.102Z,98645.91
2023-04-01T02:50:43.910Z,98658.63
2023-04-01T02:53:12.352Z,98652.94
2023-04-01T02:55:40.681Z,98655.66
2023-04-01T02:58:10.641Z,98665.94
2023-04-01T03:00:38.312Z,98668.66
2023-04-01T03:03:06.412Z,98664.06
2023-04-01T03:05:34.312Z,98664.88
2023-04-01T03:08:02.224Z,98664.91
2023-04-01T03:10:29.844Z,98658.38
2023-04-01T03:12:57.529Z,98660.00
2023-04-01T03:15:25.337Z,98655.16
2023-04-01T03:17:53.419Z,98648.12
2023-04-01T03:20:23.194Z,98648.66
2023-04-01T03:22:50.828Z,98649.22
2023-04-01T03:25:18.539Z,98654.09
2023-04-01T03:27:46.320Z,98649.22
2023-04-01T03:30:15.266Z,98664.91
2023-04-01T03:32:43.153Z,98665.97
2023-04-01T03:35:11.406Z,98670.56
2023-04-01T03:37:39.449Z,98668.16
2023-04-01T03:40:07.927Z,98677.88
2023-04-01T03:42:36.295Z,98683.31
2023-04-01T03:45:07.454Z,98674.06
2023-04-01T03:47:35.098Z,98676.75
2023-04-01T03:50:02.893Z,98681.63
2023-04-01T03:52:30.494Z,98687.56
2023-04-01T03:54:58.143Z,98690.28
2023-04-01T03:57:25.931Z,98684.88
2023-04-01T03:59:53.570Z,98682.72
2023-04-01T04:02:26.283Z,98691.34
2023-04-01T04:04:53.984Z,98684.06
2023-04-01T04:07:21.590Z,98684.88
2023-04-01T04:09:49.701Z,98679.97
2023-04-01T04:12:17.289Z,98686.72
2023-04-01T04:14:44.897Z,98684.28
2023-04-01T04:17:17.160Z,98684.03
2023-04-01T04:19:45.487Z,98688.34
2023-04-01T04:22:13.100Z,98681.84
2023-04-01T04:24:42.894Z,98689.16
2023-04-01T04:27:10.761Z,98682.13
2023-04-01T04:29:38.408Z,98682.66
2023-04-01T04:32:06.336Z,98685.91
2023-04-01T04:34:34.371Z,98683.16
2023-04-01T04:37:02.253Z,98678.56
2023-04-01T04:39:32.220Z,98679.66
2023-04-01T04:41:59.942Z,98678.84
2023-04-01T04:44:29.882Z,98681.84
2023-04-01T04:46:58.594Z,98672.41
2023-04-01T04:49:26.519Z,98680.50
2023-04-01T04:51:56.520Z,98673.75
2023-04-01T04:54:24.136Z,98676.72
2023-04-01T04:56:54.976Z,98675.91
2023-04-01T04:59:25.359Z,98670.78
2023-04-01T05:01:53.072Z,98679.19
2023-04-01T05:04:20.967Z,98667.03
2023-04-01T05:06:48.601Z,98679.72
2023-04-01T05:09:17.168Z,98666.25
2023-04-01T05:11:44.806Z,98671.38
2023-04-01T05:14:17.335Z,98665.97
2023-04-01T05:16:47.174Z,98676.78
2023-04-01T05:19:14.825Z,98681.09
2023-04-01T05:21:42.408Z,98680.50
2023-04-01T05:24:11.386Z,98674.53
2023-04-01T05:26:39.052Z,98683.94
2023-04-01T05:29:07.386Z,98689.87
2023-04-01T05:31:35.502Z,98688.97
2023-04-01T05:34:03.134Z,98690.28
2023-04-01T05:36:31.359Z,98695.59
2023-04-01T05:38:59.164Z,98696.63
2023-04-01T05:41:29.375Z,98697.13
2023-04-01T05:44:00.176Z,98697.59
2023-04-01T05:46:31.103Z,98705.19
2023-04-01T05:49:01.372Z,98708.69
2023-04-01T05:51:29.034Z,98702.09
2023-04-01T05:53:56.646Z,98691.50
2023-04-01T05:56:25.138Z,98693.09
2023-04-01T05:58:55.290Z,98692.81
2023-04-01T06:01:28.304Z,98690.34
2023-04-01T06:03:56.163Z,98697.59
2023-04-01T06:06:29.565Z,98701.88
2023-04-01T06:08:59.745Z,98702.59
2023-04-01T06:11:45.040Z,98702.72
2023-04-01T06:14:18.145Z,98700.69
2023-04-01T06:16:57.728Z,98698.09
2023-04-01T06:19:42.403Z,98699.91
2023-04-01T06:22:40.877Z,98686.78
2023-04-01T06:25:23.739Z,98688.22
2023-04-01T06:28:23.579Z,98695.38
2023-04-01T06:31:12.817Z,98695.88
2023-04-01T06:33:53.051Z,98699.53
2023-04-01T06:36:39.166Z,98697.91
2023-04-01T06:39:35.905Z,98701.44
2023-04-01T06:42:15.312Z,98705.22
2023-04-01T06:44:51.636Z,98706.97
2023-04-01T06:47:37.402Z,98713.84
2023-04-01T06:50:29.041Z,98716.97
2023-04-01T06:53:08.806Z,98709.28
2023-04-01T06:55:48.200Z,98710.38
2023-04-01T06:58:23.776Z,98717.03
2023-04-01T07:00:58.855Z,98717.44
2023-04-01T07:03:38.770Z,98722.00
2023-04-01T07:06:12.505Z,98713.03
2023-04-01T07:08:45.115Z,98716.03
2023-04-01T07:11:21.872Z,98707.13
2023-04-01T07:14:26.679Z,98701.38
2023-04-01T07:17:03.047Z,98706.41
2023-04-01T07:20:01.956Z,98707.63
2023-04-01T07:22:37.296Z,98709.56
2023-04-01T07:25:15.936Z,98709.28
2023-04-01T07:27:47.578Z,98705.25
2023-04-01T07:30:26.238Z,98700.22
2023-04-01T07:33:13.376Z,98697.16
2023-04-01T07:36:04.481Z,98699.91
2023-04-01T07:38:59.038Z,98704.38
2023-04-01T07:41:51.169Z,98714.41
2023-04-01T07:44:23.360Z,98720.50
2023-04-01T07:47:01.203Z,98708.62
2023-04-01T07:49:40.390Z,98702.00
2023-04-01T07:52:28.269Z,98711.66
2023-04-01T07:55:36.608Z,98714.31
2023-04-01T07:58:30.650Z,98704.06
2023-04-01T08:01:08.494Z,98705.87
2023-04-01T08:03:40.973Z,98716.22
2023-04-01T08:06:21.575Z,98710.22
2023-04-01T08:08:52.334Z,98723.50
2023-04-01T08:11:54.011Z,98724.31
2023-04-01T08:14:40.932Z,98723.28
2023-04-01T08:17:22.641Z,98717.56
2023-04-01T08:20:11.420Z,98723.38
2023-04-01T08:22:53.242Z,98725.56
2023-04-01T08:25:29.313Z,98714.69
2023-04-01T08:28:40.188Z,98724.09
2023-04-01T08:31:26.624Z,98722.66
2023-04-01T08:33:56.933Z,98712.22
2023-04-01T08:36:33.678Z,98721.06
2023-04-01T08:39:11.614Z,98707.91
2023-04-01T08:41:44.948Z,98713.44
2023-04-01T08:44:21.400Z,98713.69
2023-04-01T08:47:18.886Z,98716.38
2023-04-01T08:49:57.583Z,98713.97
2023-04-01T08:52:46.308Z,98708.38
2023-04-01T08:55:28.929Z,98710.53
2023-04-01T08:58:08.513Z,98721.09
2023-04-01T09:00:48.670Z,98722.22
2023-04-01T09:03:25.428Z,98721.84
2023-04-01T09:06:30.647Z,98726.59
2023-04-01T09:09:04.299Z,98726.47
2023-04-01T09:11:48.181Z,98721.03
2023-04-01T09:14:31.414Z,98724.03
2023-04-01T09:17:23.333Z,98715.16
2023-04-01T09:20:12.788Z,98710.34
2023-04-01T09:22:51.945Z,98714.38
2023-04-01T09:25:32.590Z,98719.06
2023-04-01T09:28:12.353Z,98719.78
2023-04-01T09:31:07.776Z,98716.12
2023-04-01T09:34:14.354Z,98715.38
2023-04-01T09:37:11.016Z,98725.59
2023-04-01T09:39:44.887Z,98710.78
2023-04-01T09:42:15.459Z,98723.50
2023-04-01T09:44:57.616Z,98725.22
2023-04-01T09:47:43.909Z,98714.31
2023-04-01T09:50:37.766Z,98716.31
2023-04-01T09:53:17.666Z,98717.66
2023-04-01T09:56:04.495Z,98726.97
2023-04-01T09:58:59.616Z,98726.75
2023-04-01T10:01:30.101Z,98730.78
2023-04-01T10:04:26.670Z,98730.78
2023-04-01T10:07:13.306Z,98726.25
2023-04-01T10:09:53.039Z,98730.78
2023-04-01T10:12:32.247Z,98735.44
2023-04-01T10:15:21.248Z,98742.28
2023-04-01T10:18:22.654Z,98741.50
2023-04-01T10:21:15.908Z,98741.19
2023-04-01T10:23:49.319Z,98740.09
2023-04-01T10:26:31.913Z,98742.50
2023-04-01T10:29:33.779Z,98740.28
2023-04-01T10:32:04.536Z,98736.03
2023-04-01T10:34:51.472Z,98738.97
2023-04-01T10:37:40.868Z,98718.19
2023-04-01T10:40:26.991Z,98732.38
2023-04-01T10:43:15.926Z,98727.22
2023-04-01T10:45:59.630Z,98725.97
2023-04-01T10:48:46.728Z,98735.34
2023-04-01T10:51:27.679Z,98725.56
2023-04-01T10:54:17.216Z,98727.00
2023-04-01T10:56:49.409Z,98718.66
2023-04-01T10:59:23.062Z,98725.28
2023-04-01T11:02:11.516Z,98709.09
2023-04-01T11:05:21.382Z,98712.63
2023-04-01T11:08:21.320Z,98708.66
2023-04-01T11:10:54.724Z,98721.22
2023-04-01T11:13:46.672Z,98713.91
2023-04-01T11:16:49.955Z,98707.94
2023-04-01T11:19:46.668Z,98710.75
2023-04-01T11:22:51.087Z,98715.88
2023-04-01T11:25:26.801Z,98712.03
2023-04-01T11:28:32.132Z,98711.47
2023-04-01T11:31:02.684Z,98714.53
2023-04-01T11:33:42.263Z,98713.94
2023-04-01T11:36:39.100Z,98713.97
2023-04-01T11:39:52.752Z,98710.88
2023-04-01T11:42:37.507Z,98715.97
2023-04-01T11:45:26.664Z,98715.34
2023-04-01T11:48:12.467Z,98716.50
2023-04-01T11:50:47.279Z,98718.63
2023-04-01T11:53:46.568Z,98731.91
2023-04-01T11:56:29.176Z,98722.44
2023-04-01T11:59:08.900Z,98730.34
2023-04-01T12:01:57.073Z,98722.47
2023-04-01T12:04:49.525Z,98722.47
2023-04-01T12:07:54.354Z,98727.59
2023-04-01T12:10:41.245Z,98728.47
2023-04-01T12:13:46.765Z,98729.06
2023-04-01T12:16:45.568Z,98723.84
2023-04-01T12:19:35.966Z,98730.94
2023-04-01T12:22:25.736Z,98723.94
2023-04-01T12:25:00.994Z,98721.84
2023-04-01T12:27:57.905Z,98716.47
2023-04-01T12:30:51.713Z,98725.63
2023-04-01T12:33:38.586Z,98730.59
2023-04-01T12:36:12.355Z,98722.09
2023-04-01T12:38:52.286Z,98727.41
2023-04-01T12:41:32.714Z,98728.53
2023-04-01T12:44:12.314Z,98724.94
2023-04-01T12:46:48.803Z,98713.03
2023-04-01T12:49:22.283Z,98720.81
2023-04-01T12:52:19.381Z,98708.47
2023-04-01T12:54:55.698Z,98710.22
2023-04-01T12:57:26.181Z,98716.19
2023-04-01T13:00:26.295Z,98712.03
2023-04-01T13:03:21.769Z,98705.75
2023-04-01T13:05:49.375Z,98704.34
2023-04-01T13:08:47.305Z,98706.16
2023-04-01T13:11:34.335Z,98692.47
2023-04-01T13:14:44.736Z,98700.44
2023-04-01T13:17:33.652Z,98697.97
2023-04-01T13:20:08.579Z,98702.56
2023-04-01T13:23:12.194Z,98697.72
2023-04-01T13:26:06.911Z,98707.16
2023-04-01T13:29:02.698Z,98707.66
2023-04-01T13:31:47.181Z,98707.50
2023-04-01T13:34:23.885Z,98715.22
2023-04-01T13:37:36.107Z,98721.03
2023-04-01T13:40:49.362Z,98720.19
2023-04-01T13:43:50.199Z,98716.91
2023-04-01T13:46:30.059Z,98718.81
2023-04-01T13:49:22.113Z,98727.72
2023-04-01T13:52:30.315Z,98721.19
2023-04-01T13:55:28.852Z,98730.22
2023-04-01T13:58:18.425Z,98736.19
2023-04-01T14:00:58.575Z,98736.63
2023-04-01T14:03:49.658Z,98732.22
2023-04-01T14:06:28.078Z,98737.53
2023-04-01T14:09:23.409Z,98735.72
2023-04-01T14:12:10.252Z,98734.53
2023-04-01T14:15:08.585Z,98739.78
2023-04-01T14:17:58.015Z,98737.88
2023-04-01T14:20:25.702Z,98730.94
2023-04-01T14:22:56.375Z,98720.44
2023-04-01T14:25:54.825Z,98721.84
2023-04-01T14:28:47.246Z,98717.94
2023-04-01T14:31:20.776Z,98721.34
2023-04-01T14:33:56.744Z,98724.81
2023-04-01T14:36:53.121Z,98712.28
2023-04-01T14:39:45.495Z,98715.72
2023-04-01T14:42:26.050Z,98725.19
2023-04-01T14:45:28.467Z,98714.69
2023-04-01T14:48:19.990Z,98710.72
2023-04-01T14:50:53.886Z,98721.84
2023-04-01T14:53:29.044Z,98717.25
2023-04-01T14:56:04.979Z,98701.34
2023-04-01T14:58:47.525Z,98711.31
2023-04-01T15:02:04.618Z,98712.41
2023-04-01T15:04:56.890Z,98714.13
2023-04-01T15:07:43.160Z,98716.44
2023-04-01T15:10:31.892Z,98712.22
2023-04-01T15:13:20.728Z,98714.84
2023-04-01T15:16:06.020Z,98715.88
2023-04-01T15:18:39.725Z,98715.88
2023-04-01T15:21:18.123Z,98717.78
2023-04-01T15:23:45.689Z,98709.81
2023-04-01T15:26:41.451Z,98716.97
2023-04-01T15:29:36.067Z,98722.59
2023-04-01T15:32:29.395Z,98713.63
2023-04-01T15:35:15.607Z,98718.94
2023-04-01T15:38:01.410Z,98721.47
2023-04-01T15:40:44.888Z,98715.63
2023-04-01T15:43:23.235Z,98716.75
2023-04-01T15:46:15.054Z,98735.37
2023-04-01T15:49:01.355Z,98732.78
2023-04-01T15:52:06.756Z,98724.22
2023-04-01T15:54:52.549Z,98739.00
2023-04-01T15:57:42.700Z,98740.84
2023-04-01T16:00:28.743Z,98741.59
2023-04-01T16:03:15.295Z,98738.66
2023-04-01T16:05:59.990Z,98742.81
2023-04-01T16:08:50.490Z,98744.03
2023-04-01T16:11:28.817Z,98740.00
2023-04-01T16:14:15.882Z,98751.00
2023-04-01T16:17:05.984Z,98739.28
2023-04-01T16:19:52.308Z,98753.25
2023-04-01T16:22:33.748Z,98755.66
2023-04-01T16:25:23.106Z,98754.03
2023-04-01T16:28:15.742Z,98756.78
2023-04-01T16:31:07.810Z,98757.69
2023-04-01T16:33:38.168Z,98761.34
2023-04-01T16:36:22.619Z,98762.59
2023-04-01T16:39:12.110Z,98761.66
2023-04-01T16:42:04.666Z,98775.03
2023-04-01T16:44:32.530Z,98769.78
2023-04-01T16:47:16.129Z,98772.19
2023-04-01T16:49:58.665Z,98776.84
2023-04-01T16:52:54.152Z,98775.91
2023-04-01T16:55:24.414Z,98776.22
2023-04-01T16:57:59.972Z,98779.41
2023-04-01T17:00:40.730Z,98780.06
2023-04-01T17:03:22.582Z,98785.41
2023-04-01T17:06:05.452Z,98792.09
2023-04-01T17:08:45.853Z,98786.31
2023-04-01T17:11:29.885Z,98794.13
2023-04-01T17:14:06.379Z,98787.81
2023-04-01T17:16:55.714Z,98792.34
2023-04-01T17:19:41.494Z,98792.28
2023-04-01T17:22:43.284Z,98795.19
2023-04-01T17:25:31.556Z,98798.91
2023-04-01T17:28:01.900Z,98795.56
2023-04-01T17:30:50.970Z,98806.81
2023-04-01T17:33:57.476Z,98806.41
2023-04-01T17:36:44.841Z,98807.06
2023-04-01T17:39:51.298Z,98808.56
2023-04-01T17:42:24.740Z,98810.53
2023-04-01T17:45:07.730Z,98813.88
2023-04-01T17:48:00.211Z,98812.59
2023-04-01T17:50:36.279Z,98821.09
2023-04-01T17:53:04.080Z,98819.19
2023-04-01T17:55:40.965Z,98824.38
2023-04-01T17:58:31.818Z,98830.38
2023-04-01T18:01:02.624Z,98828.28
2023-04-01T18:03:45.174Z,98830.22
2023-04-01T18:06:34.074Z,98843.06
2023-04-01T18:09:07.552Z,98844.75
2023-04-01T18:11:53.798Z,98847.22
2023-04-01T18:14:39.776Z,98846.44
2023-04-01T18:17:25.897Z,98850.56
2023-04-01T18:20:29.910Z,98855.97
2023-04-01T18:23:21.292Z,98865.19
2023-04-01T18:25:52.126Z,98871.44
2023-04-01T18:28:26.002Z,98867.09
2023-04-01T18:31:21.296Z,98875.25
2023-04-01T18:34:09.652Z,98881.22
2023-04-01T18:37:01.520Z,98874.75
2023-04-01T18:39:41.974Z,98882.06
2023-04-01T18:42:55.234Z,98886.16
2023-04-01T18:45:28.723Z,98887.50
2023-04-01T18:48:32.204Z,98889.91
2023-04-01T18:51:12.736Z,98889.91
2023-04-01T18:53:52.210Z,98888.84
2023-04-01T18:56:28.931Z,98896.37
2023-04-01T18:59:17.777Z,98895.31
2023-04-01T19:01:59.718Z,98894.22
2023-04-01T19:04:35.102Z,98895.31
2023-04-01T19:07:19.716Z,98894.22
2023-04-01T19:09:51.432Z,98894.78
2023-04-01T19:12:37.588Z,98897.22
2023-04-01T19:15:24.126Z,98894.25
2023-04-01T19:18:14.701Z,98894.53
2023-04-01T19:20:57.842Z,98895.63
2023-04-01T19:23:53.537Z,98900.53
2023-04-01T19:26:44.670Z,98889.66
2023-04-01T19:29:15.532Z,98885.66
2023-04-01T19:31:49.528Z,98900.28
2023-04-01T19:34:54.777Z,98902.47
2023-04-01T19:37:43.286Z,98875.94
2023-04-01T19:40:37.078Z,98899.22
2023-04-01T19:43:42.939Z,98907.88
2023-04-01T19:46:16.578Z,98911.69
2023-04-01T19:49:15.487Z,98921.19
2023-04-01T19:52:11.166Z,98916.03
2023-04-01T19:55:23.975Z,98916.03
2023-04-01T19:58:06.958Z,98916.31
2023-04-01T20:00:43.370Z,98925.19
2023-04-01T20:03:18.092Z,98921.69
2023-04-01T20:05:51.812Z,98918.37
2023-04-01T20:09:04.105Z,98922.97
2023-04-01T20:11:56.543Z,98926.22
2023-04-01T20:14:48.976Z,98925.09
2023-04-01T20:17:27.638Z,98926.44
2023-04-01T20:20:01.428Z,98926.16
2023-04-01T20:22:41.390Z,98914.25
2023-04-01T20:25:25.882Z,98924.53
2023-04-01T20:28:02.495Z,98921.81
2023-04-01T20:30:42.100Z,98921.53
2023-04-01T20:33:39.267Z,98915.03
2023-04-01T20:36:15.835Z,98915.84
2023-04-01T20:39:20.739Z,98914.41
2023-04-01T20:41:56.453Z,98928.19
2023-04-01T20:44:54.353Z,98922.78
2023-04-01T20:47:43.751Z,98932.50
2023-04-01T20:50:30.506Z,98947.63
2023-04-01T20:52:58.124Z,98943.84
2023-04-01T20:55:48.564Z,98953.81
2023-04-01T20:58:44.493Z,98951.63
2023-04-01T21:01:32.733Z,98959.41
2023-04-01T21:04:34.572Z,98950.75
2023-04-01T21:07:08.832Z,98959.91
2023-04-01T21:09:42.588Z,98952.03
2023-04-01T21:12:25.599Z,98954.72
2023-04-01T21:15:24.009Z,98949.06
2023-04-01T21:18:06.594Z,98953.94
2023-04-01T21:21:04.758Z,98961.81
2023-04-01T21:23:41.551Z,98952.09
2023-04-01T21:26:44.576Z,98956.28
2023-04-01T21:29:30.473Z,98953.44
2023-04-01T21:32:21.564Z,98961.91
2023-04-01T21:35:01.384Z,98968.16
2023-04-01T21:37:53.019Z,98970.66
2023-04-01T21:40:40.435Z,98964.19
2023-04-01T21:43:23.072Z,98971.25
2023-04-01T21:46:09.821Z,98970.44
2023-04-01T21:48:46.663Z,98968.56
2023-04-01T21:51:38.820Z,98974.81
2023-04-01T21:54:34.191Z,98964.25
2023-04-01T21:57:19.697Z,98962.91
2023-04-01T21:59:47.293Z,98968.59
2023-04-01T22:02:43.157Z,98968.31
2023-04-01T22:05:25.165Z,98972.37
2023-04-01T22:08:34.632Z,98969.66
2023-04-01T22:11:55.561Z,98971.56
2023-04-01T22:14:29.141Z,98972.34
2023-04-01T22:17:18.057Z,98971.28
2023-04-01T22:19:56.923Z,98967.22
2023-04-01T22:22:51.395Z,98966.94
2023-04-01T22:25:36.356Z,98976.41
2023-04-01T22:28:13.965Z,98973.97
2023-04-01T22:30:50.261Z,98974.78
2023-04-01T22:33:23.111Z,98980.75
2023-04-01T22:36:06.986Z,98979.94
2023-04-01T22:38:40.453Z,98988.06
2023-04-01T22:41:20.205Z,98990.50
2023-04-01T22:43:49.874Z,98995.66
2023-04-01T22:46:28.834Z,99000.00
2023-04-01T22:49:06.339Z,98997.03
2023-04-01T22:52:08.782Z,98995.69
2023-04-01T22:54:45.761Z,98995.94
2023-04-01T22:57:40.692Z,99003.00
2023-04-01T23:00:17.172Z,99001.09
2023-04-01T23:02:49.560Z,99011.41
2023-04-01T23:05:22.417Z,99014.66
2023-04-01T23:08:07.056Z,99021.94
2023-04-01T23:10:49.150Z,99024.66
2023-04-01T23:13:26.448Z,99033.06
2023-04-01T23:15:56.158Z,99036.56
2023-04-01T23:18:29.854Z,99032.25
2023-04-01T23:21:15.378Z,99038.44
2023-04-01T23:24:13.830Z,99041.66
2023-04-01T23:26:41.392Z,99018.31
2023-04-01T23:29:17.504Z,99045.66
2023-04-01T23:31:58.643Z,99044.28
2023-04-01T23:34:33.452Z,99054.00
2023-04-01T23:37:06.346Z,99051.50
2023-04-01T23:39:41.652Z,99050.69
2023-04-01T23:42:16.808Z,99066.34
2023-04-01T23:44:45.456Z,99065.75
2023-04-01T23:47:37.455Z,99065.72
2023-04-01T23:50:26.389Z,99068.41
2023-04-01T23:53:18.735Z,99087.31
2023-04-01T23:55:46.407Z,99082.69
2023-04-01T23:58:29.168Z,99081.59
